Time;durP1;ratioP1;P1;durP2;ratioP2;P2;SDS_P1;SDS_P2;PMS_P1;PMS_P2;Temp;Humidity;BMP_temperature;BMP_pressure;BME280_temperature;BME280_humidity;BME280_pressure;Samples;Min_cycle;Max_cycle;Signal;HPM_P1;HPM_P2
2023/07/15 00:01:05;;;;;;;;;;;25.10;49.60;;;;;;4996214;28;19930;-78
2023/07/15 00:03:32;;;;;;;;;;;25.00;49.70;;;;;;5006297;28;20596;-78
2023/07/15 00:05:58;;;;;;;;;;;25.00;49.80;;;;;;5004028;28;20035;-78
2023/07/15 00:08:27;;;;;;;;;;;25.00;49.90;;;;;;5008821;28;19928;-77
2023/07/15 00:10:54;;;;;;;;;;;24.90;49.90;;;;;;5008023;28;19929;-78
2023/07/15 00:13:21;;;;;;;;;;;24.90;50.00;;;;;;5008678;28;20354;-78
2023/07/15 00:15:50;;;;;;;;;;;24.90;50.00;;;;;;5006052;28;20535;-78
2023/07/15 00:18:17;;;;;;;;;;;24.80;50.10;;;;;;5006936;28;19930;-78
2023/07/15 00:20:44;;;;;;;;;;;24.80;50.20;;;;;;5004998;28;20592;-78
2023/07/15 00:23:15;;;;;;;;;;;24.70;50.20;;;;;;5011195;28;20193;-78
2023/07/15 00:25:42;;;;;;;;;;;24.70;50.20;;;;;;5022866;28;19930;-77
2023/07/15 00:28:10;;;;;;;;;;;24.70;50.20;;;;;;5021344;28;19936;-78
2023/07/15 00:30:36;;;;;;;;;;;24.70;50.20;;;;;;5009386;28;19936;-78
2023/07/15 00:33:03;;;;;;;;;;;24.60;50.30;;;;;;5008393;28;19992;-78
2023/07/15 00:35:30;;;;;;;;;;;24.60;50.40;;;;;;5010976;28;19936;-78
2023/07/15 00:37:57;;;;;;;;;;;24.50;50.40;;;;;;5007086;28;19933;-77
2023/07/15 00:40:24;;;;;;;;;;;24.50;50.40;;;;;;5012606;28;19964;-78
2023/07/15 00:42:51;;;;;;;;;;;24.50;50.50;;;;;;5008935;28;19933;-78
2023/07/15 00:45:17;;;;;;;;;;;24.50;50.50;;;;;;5001273;28;19930;-78
2023/07/15 00:47:47;;;;;;;;;;;24.40;50.70;;;;;;4984988;28;19984;-77
2023/07/15 00:50:14;;;;;;;;;;;24.40;50.80;;;;;;4984175;28;20029;-78
2023/07/15 00:52:41;;;;;;;;;;;24.30;50.80;;;;;;4985246;28;19933;-76
2023/07/15 00:55:08;;;;;;;;;;;24.30;50.80;;;;;;4985691;28;19930;-78
2023/07/15 00:57:35;;;;;;;;;;;24.30;50.80;;;;;;4987420;28;19983;-78
2023/07/15 01:00:04;;;;;;;;;;;24.30;50.90;;;;;;4983116;28;19940;-78
2023/07/15 01:02:31;;;;;;;;;;;24.20;51.00;;;;;;4978309;28;19942;-78
2023/07/15 01:04:59;;;;;;;;;;;24.20;51.10;;;;;;4984797;28;19936;-78
2023/07/15 01:07:26;;;;;;;;;;;24.20;51.20;;;;;;4981611;28;19978;-77
2023/07/15 01:09:52;;;;;;;;;;;24.20;51.20;;;;;;4987657;28;20693;-78
2023/07/15 01:12:19;;;;;;;;;;;24.10;51.20;;;;;;4980162;28;19934;-78
2023/07/15 01:14:45;;;;;;;;;;;24.10;51.30;;;;;;4980110;28;20008;-77
2023/07/15 01:17:12;;;;;;;;;;;24.10;51.40;;;;;;4985459;28;20005;-78
2023/07/15 01:19:37;;;;;;;;;;;24.00;51.40;;;;;;4985392;28;19934;-78
2023/07/15 01:22:06;;;;;;;;;;;24.00;51.50;;;;;;4982442;28;20313;-76
2023/07/15 01:24:35;;;;;;;;;;;23.90;51.50;;;;;;4976352;28;20325;-78
2023/07/15 01:27:03;;;;;;;;;;;24.00;51.70;;;;;;4973669;28;19934;-78
2023/07/15 01:29:29;;;;;;;;;;;23.90;51.80;;;;;;4983366;28;19933;-78
2023/07/15 01:31:56;;;;;;;;;;;23.90;51.80;;;;;;4978412;28;20387;-78
2023/07/15 01:34:22;;;;;;;;;;;23.80;51.90;;;;;;4984166;28;20430;-77
2023/07/15 01:36:49;;;;;;;;;;;23.80;51.90;;;;;;4985172;28;19930;-77
2023/07/15 01:39:16;;;;;;;;;;;23.80;52.00;;;;;;4977937;28;19930;-78
2023/07/15 01:41:44;;;;;;;;;;;23.80;52.10;;;;;;4981088;28;19940;-77
2023/07/15 01:44:11;;;;;;;;;;;23.70;52.80;;;;;;4981145;28;19940;-78
2023/07/15 01:46:39;;;;;;;;;;;23.70;52.30;;;;;;4981618;28;20008;-78
2023/07/15 01:49:05;;;;;;;;;;;23.70;52.40;;;;;;4980046;28;20458;-79
2023/07/15 01:51:33;;;;;;;;;;;23.60;52.40;;;;;;4989526;28;20383;-78
2023/07/15 01:54:00;;;;;;;;;;;23.60;52.50;;;;;;4988917;28;19930;-78
2023/07/15 01:56:26;;;;;;;;;;;23.50;52.60;;;;;;4983239;28;19937;-78
2023/07/15 01:58:54;;;;;;;;;;;23.50;52.70;;;;;;4993981;28;19937;-78
2023/07/15 02:01:21;;;;;;;;;;;23.50;52.80;;;;;;4985850;28;19936;-77
2023/07/15 02:03:47;;;;;;;;;;;23.50;52.80;;;;;;4989468;28;19929;-77
2023/07/15 02:06:14;;;;;;;;;;;23.50;52.90;;;;;;4983401;28;19929;-77
2023/07/15 02:08:41;;;;;;;;;;;23.50;53.10;;;;;;4989125;28;19937;-78
2023/07/15 02:11:08;;;;;;;;;;;23.40;53.00;;;;;;4986833;28;19929;-78
2023/07/15 02:13:34;;;;;;;;;;;23.40;53.10;;;;;;4983055;28;19937;-78
2023/07/15 02:16:02;;;;;;;;;;;23.40;53.30;;;;;;4982639;28;19929;-77
2023/07/15 02:18:29;;;;;;;;;;;23.30;53.30;;;;;;4988694;28;20410;-78
2023/07/15 02:20:55;;;;;;;;;;;23.30;53.40;;;;;;4987628;28;20026;-77
2023/07/15 02:23:22;;;;;;;;;;;23.30;53.50;;;;;;4988052;28;20506;-76
2023/07/15 02:25:49;;;;;;;;;;;23.20;53.50;;;;;;4987277;28;19985;-77
2023/07/15 02:28:15;;;;;;;;;;;23.30;53.70;;;;;;4980637;28;19934;-78
2023/07/15 02:30:42;;;;;;;;;;;23.20;53.70;;;;;;4982973;28;19945;-78
2023/07/15 02:33:10;;;;;;;;;;;23.20;53.70;;;;;;4989629;28;19933;-78
2023/07/15 02:35:39;;;;;;;;;;;23.10;53.80;;;;;;4974434;28;19930;-78
2023/07/15 02:38:05;;;;;;;;;;;23.10;53.90;;;;;;4987574;28;19930;-78
2023/07/15 02:40:32;;;;;;;;;;;23.10;54.00;;;;;;4988124;28;19930;-77
2023/07/15 02:42:59;;;;;;;;;;;23.10;54.10;;;;;;4986096;28;19933;-77
2023/07/15 02:45:26;;;;;;;;;;;23.00;54.10;;;;;;4978304;28;19933;-78
2023/07/15 02:47:52;;;;;;;;;;;23.00;54.20;;;;;;4985254;28;20093;-75
2023/07/15 02:50:21;;;;;;;;;;;23.00;54.80;;;;;;4986141;28;19930;-77
2023/07/15 02:52:47;;;;;;;;;;;23.00;54.30;;;;;;4987894;28;19936;-78
2023/07/15 02:55:14;;;;;;;;;;;23.00;54.40;;;;;;4987475;28;19941;-77
2023/07/15 02:57:40;;;;;;;;;;;22.90;54.40;;;;;;4990263;28;19933;-78
2023/07/15 03:00:12;;;;;;;;;;;22.90;54.50;;;;;;4981276;28;19929;-77
2023/07/15 03:02:39;;;;;;;;;;;22.90;54.50;;;;;;4983747;28;19930;-77
2023/07/15 03:05:06;;;;;;;;;;;22.90;54.60;;;;;;4985525;28;20733;-78
2023/07/15 03:07:34;;;;;;;;;;;22.90;54.60;;;;;;4987681;28;20015;-77
2023/07/15 03:10:01;;;;;;;;;;;22.80;54.60;;;;;;4984557;28;19930;-77
2023/07/15 03:12:28;;;;;;;;;;;22.80;54.70;;;;;;4987872;28;19961;-78
2023/07/15 03:14:55;;;;;;;;;;;22.80;54.70;;;;;;4986677;28;19985;-77
2023/07/15 03:17:21;;;;;;;;;;;22.80;54.80;;;;;;4986965;28;19934;-77
2023/07/15 03:19:48;;;;;;;;;;;22.80;54.90;;;;;;4986729;28;19930;-77
2023/07/15 03:22:14;;;;;;;;;;;22.80;54.90;;;;;;4979395;28;19936;-78
2023/07/15 03:24:42;;;;;;;;;;;22.70;55.50;;;;;;4982811;28;19976;-77
2023/07/15 03:27:09;;;;;;;;;;;22.70;55.00;;;;;;4985293;28;19931;-78
2023/07/15 03:29:36;;;;;;;;;;;22.70;55.10;;;;;;4986722;28;19929;-78
2023/07/15 03:32:02;;;;;;;;;;;22.70;55.10;;;;;;4984388;28;19988;-77
2023/07/15 03:34:29;;;;;;;;;;;22.70;55.20;;;;;;4983028;28;19930;-77
2023/07/15 03:36:55;;;;;;;;;;;22.70;55.30;;;;;;4983744;28;20430;-78
2023/07/15 03:39:23;;;;;;;;;;;22.60;55.20;;;;;;4986107;28;19936;-77
2023/07/15 03:41:50;;;;;;;;;;;22.60;55.30;;;;;;4983956;28;20411;-77
2023/07/15 03:44:17;;;;;;;;;;;22.60;55.40;;;;;;4983958;28;20396;-77
2023/07/15 03:46:44;;;;;;;;;;;22.60;55.50;;;;;;4981924;28;19944;-78
2023/07/15 03:49:10;;;;;;;;;;;22.60;55.60;;;;;;4983841;28;20355;-77
2023/07/15 03:51:37;;;;;;;;;;;22.60;55.60;;;;;;4979933;28;19937;-77
2023/07/15 03:54:05;;;;;;;;;;;22.50;55.70;;;;;;4981464;28;19937;-77
2023/07/15 03:56:32;;;;;;;;;;;22.60;55.80;;;;;;4986625;28;19977;-78
2023/07/15 03:59:00;;;;;;;;;;;22.50;55.80;;;;;;4986229;28;19930;-75
2023/07/15 04:01:26;;;;;;;;;;;22.50;55.90;;;;;;4975737;28;19937;-77
2023/07/15 04:03:53;;;;;;;;;;;22.50;55.90;;;;;;4985653;28;19941;-77
2023/07/15 04:06:19;;;;;;;;;;;22.50;56.00;;;;;;4980998;28;19937;-77
2023/07/15 04:08:46;;;;;;;;;;;22.50;56.10;;;;;;4985678;28;19942;-75
2023/07/15 04:11:12;;;;;;;;;;;22.50;56.20;;;;;;4983881;28;19933;-77
2023/07/15 04:13:39;;;;;;;;;;;22.40;56.20;;;;;;4982614;28;19937;-77
2023/07/15 04:16:07;;;;;;;;;;;22.40;56.20;;;;;;4984131;28;19930;-77
2023/07/15 04:18:33;;;;;;;;;;;22.40;56.30;;;;;;4983002;28;19937;-78
2023/07/15 04:21:00;;;;;;;;;;;22.40;56.30;;;;;;4983666;28;19937;-77
2023/07/15 04:23:26;;;;;;;;;;;22.40;56.30;;;;;;4985255;28;19941;-77
2023/07/15 04:25:53;;;;;;;;;;;22.40;56.40;;;;;;4978809;28;20013;-77
2023/07/15 04:28:20;;;;;;;;;;;22.40;56.50;;;;;;4984884;28;19929;-77
2023/07/15 04:30:46;;;;;;;;;;;22.40;56.50;;;;;;4984981;28;19934;-77
2023/07/15 04:33:14;;;;;;;;;;;22.30;56.60;;;;;;4984752;28;19952;-77
2023/07/15 04:35:41;;;;;;;;;;;22.30;56.60;;;;;;4985598;28;20277;-77
2023/07/15 04:38:08;;;;;;;;;;;22.30;56.60;;;;;;4984483;28;19926;-77
2023/07/15 04:40:35;;;;;;;;;;;22.30;56.70;;;;;;4985805;28;19937;-77
2023/07/15 04:43:02;;;;;;;;;;;22.20;56.70;;;;;;4982366;28;20186;-77
2023/07/15 04:45:30;;;;;;;;;;;22.20;56.70;;;;;;4980551;28;19943;-77
2023/07/15 04:47:57;;;;;;;;;;;22.20;56.80;;;;;;4979635;28;19936;-76
2023/07/15 04:50:25;;;;;;;;;;;22.20;56.80;;;;;;4978706;28;19992;-75
2023/07/15 04:52:51;;;;;;;;;;;22.20;56.90;;;;;;4986669;28;20315;-76
2023/07/15 04:55:18;;;;;;;;;;;22.20;56.90;;;;;;4981736;28;19965;-77
2023/07/15 04:57:45;;;;;;;;;;;22.20;56.90;;;;;;4984001;28;20016;-76
2023/07/15 05:00:12;;;;;;;;;;;22.20;57.00;;;;;;4981437;28;19999;-77
2023/07/15 05:02:39;;;;;;;;;;;22.20;57.00;;;;;;4980897;28;19930;-77
2023/07/15 05:05:05;;;;;;;;;;;22.20;57.00;;;;;;4985340;28;19938;-78
2023/07/15 05:07:34;;;;;;;;;;;22.20;57.10;;;;;;4979461;28;19934;-79
2023/07/15 05:10:00;;;;;;;;;;;22.20;57.10;;;;;;4986876;28;19938;-78
2023/07/15 05:12:27;;;;;;;;;;;22.10;57.00;;;;;;4984971;28;19930;-78
2023/07/15 05:14:53;;;;;;;;;;;22.10;57.00;;;;;;4980541;28;19929;-78
2023/07/15 05:17:20;;;;;;;;;;;22.10;57.10;;;;;;4985923;28;19929;-79
2023/07/15 05:19:46;;;;;;;;;;;22.10;57.20;;;;;;4985978;28;19933;-78
2023/07/15 05:22:13;;;;;;;;;;;22.10;57.20;;;;;;4977905;28;19945;-78
2023/07/15 05:24:41;;;;;;;;;;;22.10;57.30;;;;;;4983751;28;19973;-79
2023/07/15 05:27:08;;;;;;;;;;;22.10;57.40;;;;;;4988906;28;19940;-79
2023/07/15 05:29:35;;;;;;;;;;;22.10;57.40;;;;;;4987070;28;19976;-78
2023/07/15 05:32:01;;;;;;;;;;;22.10;57.40;;;;;;4981646;28;19934;-78
2023/07/15 05:34:28;;;;;;;;;;;22.10;57.40;;;;;;4989219;28;19944;-78
2023/07/15 05:36:54;;;;;;;;;;;22.10;57.40;;;;;;4989327;28;20586;-78
2023/07/15 05:39:21;;;;;;;;;;;22.10;57.50;;;;;;4985064;28;19930;-78
2023/07/15 05:41:49;;;;;;;;;;;22.10;57.60;;;;;;4990252;28;19933;-79
2023/07/15 05:44:15;;;;;;;;;;;22.10;57.70;;;;;;4987496;28;20257;-78
2023/07/15 05:46:42;;;;;;;;;;;22.10;57.70;;;;;;4980701;28;19948;-78
2023/07/15 05:49:08;;;;;;;;;;;22.20;57.80;;;;;;4985222;28;19929;-78
2023/07/15 05:51:35;;;;;;;;;;;22.10;57.80;;;;;;4991723;28;19934;-78
2023/07/15 05:54:01;;;;;;;;;;;22.10;57.90;;;;;;4984135;28;19937;-77
2023/07/15 05:56:28;;;;;;;;;;;22.10;57.90;;;;;;4988280;28;19929;-78
2023/07/15 05:58:56;;;;;;;;;;;22.20;57.90;;;;;;4989183;28;19937;-78
2023/07/15 06:01:22;;;;;;;;;;;22.20;57.90;;;;;;4988106;28;19937;-78
2023/07/15 06:03:49;;;;;;;;;;;22.20;57.90;;;;;;4985360;28;19953;-76
2023/07/15 06:06:16;;;;;;;;;;;22.20;58.00;;;;;;4983569;28;19984;-76
2023/07/15 06:08:42;;;;;;;;;;;22.20;57.90;;;;;;4988445;28;20667;-77
2023/07/15 06:11:10;;;;;;;;;;;22.20;58.00;;;;;;4990381;28;19929;-78
2023/07/15 06:13:37;;;;;;;;;;;22.30;58.20;;;;;;4988613;28;19936;-78
2023/07/15 06:16:05;;;;;;;;;;;22.30;58.20;;;;;;4980434;28;19981;-77
2023/07/15 06:18:31;;;;;;;;;;;22.30;58.40;;;;;;4988274;28;20323;-77
2023/07/15 06:20:58;;;;;;;;;;;22.30;58.30;;;;;;4987356;28;20388;-77
2023/07/15 06:23:24;;;;;;;;;;;22.30;58.40;;;;;;4983431;28;20525;-77
2023/07/15 06:25:51;;;;;;;;;;;22.30;58.60;;;;;;4985272;28;19988;-76
2023/07/15 06:28:17;;;;;;;;;;;22.30;58.40;;;;;;4985999;28;19934;-77
2023/07/15 06:30:48;;;;;;;;;;;22.40;58.80;;;;;;4986373;28;19930;-77
2023/07/15 06:33:16;;;;;;;;;;;22.40;58.90;;;;;;4991186;28;20017;-78
2023/07/15 06:35:42;;;;;;;;;;;22.40;58.70;;;;;;4977756;28;19929;-77
2023/07/15 06:38:09;;;;;;;;;;;22.40;58.80;;;;;;4982538;28;20021;-77
2023/07/15 06:40:36;;;;;;;;;;;22.40;58.70;;;;;;4983724;28;19963;-77
2023/07/15 06:43:02;;;;;;;;;;;22.50;59.00;;;;;;4982606;28;19953;-77
2023/07/15 06:45:32;;;;;;;;;;;22.50;58.90;;;;;;4976993;28;20407;-78
2023/07/15 06:47:59;;;;;;;;;;;22.50;59.00;;;;;;4986289;28;19930;-78
2023/07/15 06:50:27;;;;;;;;;;;22.50;59.10;;;;;;4980576;28;20010;-77
2023/07/15 06:52:53;;;;;;;;;;;22.50;59.00;;;;;;4989065;28;20363;-78
2023/07/15 06:55:20;;;;;;;;;;;22.60;59.00;;;;;;4982906;28;20336;-77
2023/07/15 06:57:47;;;;;;;;;;;22.60;59.00;;;;;;4988152;28;19929;-77
2023/07/15 07:00:14;;;;;;;;;;;22.60;59.00;;;;;;4981371;28;20533;-77
2023/07/15 07:02:40;;;;;;;;;;;22.60;59.00;;;;;;4987255;28;19997;-78
2023/07/15 07:05:07;;;;;;;;;;;22.70;59.00;;;;;;4983215;28;21071;-77
2023/07/15 07:07:35;;;;;;;;;;;22.70;58.90;;;;;;4987064;28;19933;-77
2023/07/15 07:10:02;;;;;;;;;;;22.70;59.10;;;;;;4984640;28;19933;-76
2023/07/15 07:12:28;;;;;;;;;;;22.80;59.40;;;;;;4986447;28;19929;-77
2023/07/15 07:14:55;;;;;;;;;;;22.90;59.40;;;;;;4986657;28;19940;-77
2023/07/15 07:17:21;;;;;;;;;;;22.90;59.50;;;;;;4979315;28;19936;-75
2023/07/15 07:19:48;;;;;;;;;;;22.90;59.40;;;;;;4986849;28;19930;-77
2023/07/15 07:22:14;;;;;;;;;;;22.90;59.50;;;;;;4988497;28;20044;-78
2023/07/15 07:24:42;;;;;;;;;;;22.90;59.60;;;;;;4981949;28;19930;-77
2023/07/15 07:27:11;;;;;;;;;;;23.00;59.80;;;;;;4981611;28;19933;-76
2023/07/15 07:29:38;;;;;;;;;;;23.00;60.10;;;;;;4985299;28;20410;-77
2023/07/15 07:32:05;;;;;;;;;;;23.00;59.80;;;;;;4991044;28;19933;-77
2023/07/15 07:34:32;;;;;;;;;;;23.10;59.90;;;;;;4986045;28;19966;-76
2023/07/15 07:36:59;;;;;;;;;;;23.10;59.80;;;;;;4986484;28;19941;-77
2023/07/15 07:39:25;;;;;;;;;;;23.10;59.70;;;;;;4986657;28;19930;-76
2023/07/15 07:41:54;;;;;;;;;;;23.10;59.70;;;;;;4986461;28;20336;-77
2023/07/15 07:44:21;;;;;;;;;;;23.10;59.70;;;;;;4983395;28;20599;-77
2023/07/15 07:46:48;;;;;;;;;;;23.20;59.90;;;;;;4982537;28;19930;-77
2023/07/15 07:49:14;;;;;;;;;;;23.20;60.20;;;;;;4982930;28;19933;-78
2023/07/15 07:51:41;;;;;;;;;;;23.20;60.50;;;;;;4990181;28;19930;-77
2023/07/15 07:54:08;;;;;;;;;;;23.20;60.80;;;;;;4987068;28;19960;-77
2023/07/15 07:56:35;;;;;;;;;;;23.30;60.80;;;;;;4971152;28;19965;-77
2023/07/15 07:59:04;;;;;;;;;;;23.30;60.50;;;;;;4976538;28;20033;-77
2023/07/15 08:01:31;;;;;;;;;;;23.30;60.70;;;;;;4970985;28;20312;-77
2023/07/15 08:03:58;;;;;;;;;;;23.30;61.10;;;;;;4986783;28;19981;-77
2023/07/15 08:06:25;;;;;;;;;;;23.40;61.00;;;;;;4987407;28;19934;-78
2023/07/15 08:08:52;;;;;;;;;;;23.40;60.90;;;;;;4979965;28;20396;-77
2023/07/15 08:11:18;;;;;;;;;;;23.40;61.10;;;;;;4986596;28;19937;-77
2023/07/15 08:13:45;;;;;;;;;;;23.40;60.90;;;;;;4985562;28;19933;-78
2023/07/15 08:16:27;;;;;;;;;;;23.50;60.60;;;;;;4983978;28;19936;-77
2023/07/15 08:18:54;;;;;;;;;;;23.50;60.70;;;;;;4978320;28;19934;-77
2023/07/15 08:21:20;;;;;;;;;;;23.60;60.50;;;;;;4985169;28;19938;-77
2023/07/15 08:23:47;;;;;;;;;;;23.60;60.40;;;;;;4984566;28;19930;-77
2023/07/15 08:26:14;;;;;;;;;;;23.70;60.30;;;;;;4980682;28;20435;-77
2023/07/15 08:28:40;;;;;;;;;;;23.70;60.20;;;;;;4985872;28;19937;-77
2023/07/15 08:31:07;;;;;;;;;;;23.70;60.00;;;;;;4985244;28;19937;-77
2023/07/15 08:33:35;;;;;;;;;;;23.70;59.80;;;;;;4988497;28;19929;-77
2023/07/15 08:36:01;;;;;;;;;;;23.80;59.70;;;;;;4977903;28;19934;-77
2023/07/15 08:38:28;;;;;;;;;;;23.80;59.70;;;;;;4984422;28;19937;-78
2023/07/15 08:40:58;;;;;;;;;;;23.90;59.70;;;;;;4983550;28;19929;-77
2023/07/15 08:43:25;;;;;;;;;;;23.90;59.60;;;;;;4985910;28;20339;-77
2023/07/15 08:45:53;;;;;;;;;;;23.90;60.30;;;;;;4981759;28;19937;-78
2023/07/15 08:48:19;;;;;;;;;;;24.00;59.70;;;;;;4982760;28;20327;-78
2023/07/15 08:50:48;;;;;;;;;;;24.00;59.60;;;;;;4985083;28;19930;-77
2023/07/15 08:53:16;;;;;;;;;;;24.10;59.60;;;;;;4983606;28;19933;-78
2023/07/15 08:55:42;;;;;;;;;;;24.10;59.60;;;;;;4975912;28;19937;-77
2023/07/15 08:58:09;;;;;;;;;;;24.20;59.70;;;;;;4978812;28;19937;-78
2023/07/15 09:00:35;;;;;;;;;;;24.20;59.50;;;;;;4983235;28;20509;-77
2023/07/15 09:03:03;;;;;;;;;;;24.30;59.40;;;;;;4981474;28;19968;-77
2023/07/15 09:05:29;;;;;;;;;;;24.30;59.30;;;;;;4977260;28;19938;-78
2023/07/15 09:07:58;;;;;;;;;;;24.40;59.20;;;;;;4985187;28;19929;-78
2023/07/15 09:10:24;;;;;;;;;;;24.40;59.00;;;;;;4985039;28;19973;-78
2023/07/15 09:12:52;;;;;;;;;;;24.50;58.90;;;;;;4976919;28;20738;-78
2023/07/15 09:15:19;;;;;;;;;;;24.50;58.80;;;;;;4976308;28;19934;-78
2023/07/15 09:17:51;;;;;;;;;;;24.60;58.80;;;;;;4982819;28;19929;-77
2023/07/15 09:20:19;;;;;;;;;;;24.70;58.70;;;;;;4985546;28;20021;-78
2023/07/15 09:22:45;;;;;;;;;;;24.70;58.70;;;;;;4984836;28;20494;-77
2023/07/15 09:25:13;;;;;;;;;;;24.80;58.60;;;;;;4981921;28;19984;-77
2023/07/15 09:27:43;;;;;;;;;;;24.80;58.40;;;;;;4983295;28;20028;-78
2023/07/15 09:30:10;;;;;;;;;;;24.90;58.40;;;;;;4983649;28;20040;-78
2023/07/15 09:32:37;;;;;;;;;;;24.90;58.20;;;;;;4985194;28;20032;-77
2023/07/15 09:35:03;;;;;;;;;;;25.00;57.90;;;;;;4978904;28;19930;-78
2023/07/15 09:37:31;;;;;;;;;;;25.10;57.80;;;;;;4979202;28;19933;-78
2023/07/15 09:39:59;;;;;;;;;;;25.10;57.80;;;;;;4985148;28;19933;-78
2023/07/15 09:42:27;;;;;;;;;;;25.10;57.70;;;;;;4984370;28;20375;-75
2023/07/15 09:44:54;;;;;;;;;;;25.20;57.80;;;;;;4982162;28;19937;-77
2023/07/15 09:47:21;;;;;;;;;;;25.20;57.80;;;;;;4980764;28;19933;-77
2023/07/15 09:49:47;;;;;;;;;;;25.20;57.60;;;;;;4979464;28;19929;-77
2023/07/15 09:52:15;;;;;;;;;;;25.20;57.50;;;;;;4981524;28;19956;-78
2023/07/15 09:54:42;;;;;;;;;;;25.30;57.70;;;;;;4984380;28;19930;-77
2023/07/15 09:57:10;;;;;;;;;;;25.30;57.60;;;;;;4980590;28;19972;-77
2023/07/15 09:59:44;;;;;;;;;;;25.40;57.70;;;;;;4984864;28;19940;-76
2023/07/15 10:02:16;;;;;;;;;;;25.40;57.60;;;;;;4983977;28;19930;-77
2023/07/15 10:04:44;;;;;;;;;;;25.40;57.60;;;;;;4983149;28;19929;-77
2023/07/15 10:07:11;;;;;;;;;;;25.40;57.40;;;;;;4985086;28;19980;-77
2023/07/15 10:09:38;;;;;;;;;;;25.50;57.40;;;;;;4981663;28;19930;-76
2023/07/15 10:12:06;;;;;;;;;;;25.50;57.20;;;;;;4987841;28;19929;-78
2023/07/15 10:14:33;;;;;;;;;;;25.60;56.70;;;;;;4988870;28;19937;-78
2023/07/15 10:17:09;;;;;;;;;;;25.60;57.10;;;;;;4989947;28;20660;-77
2023/07/15 10:19:39;;;;;;;;;;;25.70;56.30;;;;;;4988469;28;19945;-79
2023/07/15 10:22:06;;;;;;;;;;;25.80;56.20;;;;;;4984021;28;20034;-78
2023/07/15 10:24:33;;;;;;;;;;;25.80;56.00;;;;;;4983508;28;19937;-78
2023/07/15 10:27:01;;;;;;;;;;;25.90;55.80;;;;;;4987882;28;20016;-78
2023/07/15 10:29:30;;;;;;;;;;;26.00;55.40;;;;;;4986280;28;19977;-77
2023/07/15 10:32:11;;;;;;;;;;;26.10;55.10;;;;;;4987466;28;19937;-78
2023/07/15 10:34:40;;;;;;;;;;;26.20;54.40;;;;;;4986858;28;20012;-79
2023/07/15 10:37:07;;;;;;;;;;;26.30;53.80;;;;;;4978944;28;19930;-78
2023/07/15 10:39:34;;;;;;;;;;;26.40;54.00;;;;;;4988368;28;19929;-77
2023/07/15 10:42:07;;;;;;;;;;;26.40;54.00;;;;;;4986730;28;19933;-79
2023/07/15 10:44:39;;;;;;;;;;;26.50;53.70;;;;;;4987711;28;19934;-78
2023/07/15 10:47:05;;;;;;;;;;;26.50;53.60;;;;;;4986791;28;20199;-75
2023/07/15 10:49:33;;;;;;;;;;;26.60;53.50;;;;;;4985241;28;20678;-78
2023/07/15 10:52:00;;;;;;;;;;;26.60;53.50;;;;;;4986457;28;19966;-78
2023/07/15 10:54:28;;;;;;;;;;;26.70;53.30;;;;;;4987742;28;20792;-77
2023/07/15 10:56:55;;;;;;;;;;;26.70;53.20;;;;;;4987331;28;20005;-76
2023/07/15 10:59:21;;;;;;;;;;;26.80;53.20;;;;;;4981710;28;19930;-77
2023/07/15 11:01:48;;;;;;;;;;;26.80;53.10;;;;;;4985534;28;19925;-77
2023/07/15 11:04:19;;;;;;;;;;;26.80;53.00;;;;;;4983282;28;19933;-77
2023/07/15 11:06:47;;;;;;;;;;;26.90;52.70;;;;;;4982932;28;20517;-78
2023/07/15 11:09:14;;;;;;;;;;;26.90;52.70;;;;;;4982653;28;19930;-78
2023/07/15 11:11:40;;;;;;;;;;;26.90;52.70;;;;;;4986425;28;19934;-77
2023/07/15 11:14:18;;;;;;;;;;;26.90;52.60;;;;;;4984504;28;19937;-77
2023/07/15 11:16:44;;;;;;;;;;;27.00;52.70;;;;;;4984164;28;19929;-79
2023/07/15 11:19:13;;;;;;;;;;;27.00;52.70;;;;;;4978873;28;20403;-78
2023/07/15 11:21:40;;;;;;;;;;;27.00;52.60;;;;;;4987029;28;19929;-77
2023/07/15 11:24:07;;;;;;;;;;;27.10;52.60;;;;;;4984664;28;19930;-78
2023/07/15 11:26:36;;;;;;;;;;;27.10;52.60;;;;;;4986469;28;19930;-76
2023/07/15 11:29:13;;;;;;;;;;;27.10;52.50;;;;;;4986849;28;19933;-78
2023/07/15 11:31:40;;;;;;;;;;;27.10;52.40;;;;;;4987088;28;19930;-78
2023/07/15 11:34:09;;;;;;;;;;;27.20;52.50;;;;;;4983443;28;19937;-77
2023/07/15 11:36:36;;;;;;;;;;;27.20;52.50;;;;;;4987135;28;19929;-77
2023/07/15 11:39:04;;;;;;;;;;;27.20;52.50;;;;;;4979696;28;20016;-77
2023/07/15 11:41:32;;;;;;;;;;;27.20;52.40;;;;;;4984702;28;19937;-78
2023/07/15 11:43:59;;;;;;;;;;;27.30;52.50;;;;;;4974893;28;19930;-79
2023/07/15 11:46:25;;;;;;;;;;;27.30;52.50;;;;;;4985584;28;20148;-77
2023/07/15 11:48:52;;;;;;;;;;;27.30;52.40;;;;;;4982949;28;19980;-78
2023/07/15 11:51:21;;;;;;;;;;;27.30;52.30;;;;;;4981489;28;19929;-78
2023/07/15 11:53:47;;;;;;;;;;;27.40;52.10;;;;;;4983290;28;19938;-78
2023/07/15 11:56:29;;;;;;;;;;;27.50;52.00;;;;;;4985161;28;19937;-77
2023/07/15 11:58:57;;;;;;;;;;;27.50;51.90;;;;;;4984110;28;20008;-77
2023/07/15 12:01:24;;;;;;;;;;;27.60;51.90;;;;;;4981464;28;19929;-77
2023/07/15 12:03:51;;;;;;;;;;;27.60;51.90;;;;;;4985451;28;19933;-77
2023/07/15 12:06:18;;;;;;;;;;;27.70;51.90;;;;;;4985722;28;19930;-77
2023/07/15 12:08:58;;;;;;;;;;;27.70;51.70;;;;;;4978375;28;20363;-78
2023/07/15 12:11:25;;;;;;;;;;;27.80;51.60;;;;;;4983495;28;20348;-78
2023/07/15 12:13:52;;;;;;;;;;;27.90;51.40;;;;;;4978021;28;20384;-77
2023/07/15 12:16:21;;;;;;;;;;;27.90;51.30;;;;;;4983711;28;19934;-78
2023/07/15 12:18:47;;;;;;;;;;;27.90;51.20;;;;;;4989266;28;19934;-77
2023/07/15 12:21:14;;;;;;;;;;;28.00;51.30;;;;;;4985205;28;19930;-75
2023/07/15 12:23:41;;;;;;;;;;;28.00;51.10;;;;;;4985272;28;19929;-78
2023/07/15 12:26:08;;;;;;;;;;;28.00;51.10;;;;;;4981618;28;20457;-77
2023/07/15 12:28:34;;;;;;;;;;;28.10;50.90;;;;;;4981956;28;19937;-78
2023/07/15 12:31:01;;;;;;;;;;;28.10;50.90;;;;;;4982698;28;19957;-77
2023/07/15 12:33:29;;;;;;;;;;;28.10;50.80;;;;;;4983033;28;20426;-77
2023/07/15 12:35:56;;;;;;;;;;;28.20;50.90;;;;;;4984918;28;19941;-77
2023/07/15 12:38:22;;;;;;;;;;;28.20;50.90;;;;;;4985132;28;20671;-77
2023/07/15 12:40:49;;;;;;;;;;;28.20;50.80;;;;;;4982774;28;20280;-77
2023/07/15 12:43:15;;;;;;;;;;;28.20;50.80;;;;;;4982282;28;19926;-77
2023/07/15 12:45:42;;;;;;;;;;;28.30;50.80;;;;;;4982380;28;19929;-77
2023/07/15 12:48:09;;;;;;;;;;;28.30;50.80;;;;;;4977367;28;19930;-77
2023/07/15 12:50:36;;;;;;;;;;;28.30;50.80;;;;;;4983711;28;19937;-78
2023/07/15 12:53:03;;;;;;;;;;;28.30;50.80;;;;;;4982858;28;19930;-77
2023/07/15 12:55:30;;;;;;;;;;;28.40;50.90;;;;;;4984218;28;19941;-77
2023/07/15 12:57:56;;;;;;;;;;;28.40;50.90;;;;;;4978299;28;19934;-77
2023/07/15 13:00:23;;;;;;;;;;;28.40;50.90;;;;;;4975707;28;20650;-78
2023/07/15 13:02:49;;;;;;;;;;;28.40;50.90;;;;;;4984943;28;20395;-78
2023/07/15 13:05:16;;;;;;;;;;;28.50;50.90;;;;;;4984587;28;19930;-78
2023/07/15 13:07:44;;;;;;;;;;;28.60;50.90;;;;;;4979980;28;19937;-78
2023/07/15 13:10:10;;;;;;;;;;;28.60;50.80;;;;;;4978750;28;19930;-77
2023/07/15 13:12:37;;;;;;;;;;;28.70;50.70;;;;;;4985894;28;19934;-78
2023/07/15 13:15:04;;;;;;;;;;;28.70;50.60;;;;;;4979589;28;19977;-79
2023/07/15 13:17:30;;;;;;;;;;;28.80;50.40;;;;;;5006119;28;20559;-78
2023/07/15 13:19:57;;;;;;;;;;;28.90;50.60;;;;;;5003732;28;20012;-76
2023/07/15 13:22:23;;;;;;;;;;;28.90;49.70;;;;;;5004665;28;19961;-78
2023/07/15 13:24:52;;;;;;;;;;;29.00;49.50;;;;;;5003901;28;19937;-79
2023/07/15 13:27:18;;;;;;;;;;;29.10;49.50;;;;;;5002763;28;19936;-78
2023/07/15 13:29:45;;;;;;;;;;;29.20;49.20;;;;;;5006049;28;19940;-80
2023/07/15 13:32:12;;;;;;;;;;;29.20;48.80;;;;;;5005061;28;19936;-79
2023/07/15 13:34:38;;;;;;;;;;;29.30;48.90;;;;;;5006754;28;19942;-79
2023/07/15 13:37:05;;;;;;;;;;;29.30;49.00;;;;;;5000836;28;19937;-81
2023/07/15 13:39:32;;;;;;;;;;;29.40;49.00;;;;;;5006739;28;20183;-79
2023/07/15 13:42:00;;;;;;;;;;;29.40;48.90;;;;;;5006790;28;20473;-78
2023/07/15 13:44:27;;;;;;;;;;;29.50;48.90;;;;;;5007054;28;19937;-78
2023/07/15 13:46:53;;;;;;;;;;;29.60;48.80;;;;;;5004505;28;19930;-78
2023/07/15 13:49:20;;;;;;;;;;;29.60;48.70;;;;;;5004629;28;19930;-79
2023/07/15 13:51:46;;;;;;;;;;;29.60;48.60;;;;;;5006339;28;19936;-78
2023/07/15 13:54:13;;;;;;;;;;;29.70;48.40;;;;;;5008030;28;20403;-78
2023/07/15 13:56:39;;;;;;;;;;;29.80;48.20;;;;;;5008401;28;19965;-79
2023/07/15 13:59:07;;;;;;;;;;;29.80;48.10;;;;;;5001413;28;19940;-77
2023/07/15 14:01:34;;;;;;;;;;;29.80;48.00;;;;;;4995852;28;19937;-78
2023/07/15 14:04:01;;;;;;;;;;;29.90;48.00;;;;;;4994791;28;19929;-76
2023/07/15 14:06:27;;;;;;;;;;;29.90;47.90;;;;;;4980447;28;19934;-77
2023/07/15 14:08:54;;;;;;;;;;;29.90;48.00;;;;;;4987718;28;19941;-78
2023/07/15 14:11:20;;;;;;;;;;;29.90;47.90;;;;;;4987708;28;19937;-78
2023/07/15 14:13:47;;;;;;;;;;;29.90;48.00;;;;;;4982707;28;19930;-78
2023/07/15 14:16:15;;;;;;;;;;;29.90;48.00;;;;;;4995753;28;20021;-78